sensor_id;sensor_type;location;lat;lon;timestamp;temperature;humidity
36800;DHT22;22752;51.960;5.886;2024-01-10T00:02:00;-3.10;97.90
36800;DHT22;22752;51.960;5.886;2024-01-10T00:04:26;-3.20;98.00
36800;DHT22;22752;51.960;5.886;2024-01-10T00:06:51;-3.20;98.10
36800;DHT22;22752;51.960;5.886;2024-01-10T00:09:17;-3.20;98.30
36800;DHT22;22752;51.960;5.886;2024-01-10T00:11:43;-3.30;98.40
36800;DHT22;22752;51.960;5.886;2024-01-10T00:14:09;-3.30;98.50
36800;DHT22;22752;51.960;5.886;2024-01-10T00:16:35;-3.30;98.70
36800;DHT22;22752;51.960;5.886;2024-01-10T00:19:01;-3.20;98.80
36800;DHT22;22752;51.960;5.886;2024-01-10T00:21:26;-3.30;98.90
36800;DHT22;22752;51.960;5.886;2024-01-10T00:23:52;-3.30;99.00
36800;DHT22;22752;51.960;5.886;2024-01-10T00:26:18;-3.40;99.10
36800;DHT22;22752;51.960;5.886;2024-01-10T00:28:43;-3.40;99.30
36800;DHT22;22752;51.960;5.886;2024-01-10T00:31:12;-3.40;99.40
36800;DHT22;22752;51.960;5.886;2024-01-10T00:33:38;-3.40;99.60
36800;DHT22;22752;51.960;5.886;2024-01-10T00:36:04;-3.50;99.70
36800;DHT22;22752;51.960;5.886;2024-01-10T00:38:29;-3.50;99.80
36800;DHT22;22752;51.960;5.886;2024-01-10T00:40:55;-3.50;99.90
36800;DHT22;22752;51.960;5.886;2024-01-10T00:43:21;-3.50;99.90
36800;DHT22;22752;51.960;5.886;2024-01-10T00:45:47;-3.50;99.90
36800;DHT22;22752;51.960;5.886;2024-01-10T00:48:12;-3.60;99.90
36800;DHT22;22752;51.960;5.886;2024-01-10T00:50:38;-3.60;99.90
36800;DHT22;22752;51.960;5.886;2024-01-10T00:53:04;-3.70;99.90
36800;DHT22;22752;51.960;5.886;2024-01-10T00:55:29;-3.70;99.90
36800;DHT22;22752;51.960;5.886;2024-01-10T00:57:55;-3.70;99.90
36800;DHT22;22752;51.960;5.886;2024-01-10T01:00:21;-3.70;99.90
36800;DHT22;22752;51.960;5.886;2024-01-10T01:02:46;-3.70;99.90
36800;DHT22;22752;51.960;5.886;2024-01-10T01:05:12;-3.70;99.90
36800;DHT22;22752;51.960;5.886;2024-01-10T01:07:38;-3.60;99.90
36800;DHT22;22752;51.960;5.886;2024-01-10T01:10:04;-3.60;99.90
36800;DHT22;22752;51.960;5.886;2024-01-10T01:12:30;-3.60;99.90
36800;DHT22;22752;51.960;5.886;2024-01-10T01:14:56;-3.60;99.90
36800;DHT22;22752;51.960;5.886;2024-01-10T01:17:21;-3.60;99.90
36800;DHT22;22752;51.960;5.886;2024-01-10T01:19:47;-3.60;99.90
36800;DHT22;22752;51.960;5.886;2024-01-10T01:22:13;-3.60;99.90
36800;DHT22;22752;51.960;5.886;2024-01-10T01:24:38;-3.60;99.90
36800;DHT22;22752;51.960;5.886;2024-01-10T01:27:04;-3.70;99.90
36800;DHT22;22752;51.960;5.886;2024-01-10T01:29:30;-3.70;99.90
36800;DHT22;22752;51.960;5.886;2024-01-10T01:31:55;-3.60;99.90
36800;DHT22;22752;51.960;5.886;2024-01-10T01:34:21;-3.60;99.90
36800;DHT22;22752;51.960;5.886;2024-01-10T01:36:47;-3.60;99.90
36800;DHT22;22752;51.960;5.886;2024-01-10T01:39:13;-3.60;99.90
36800;DHT22;22752;51.960;5.886;2024-01-10T01:41:39;-3.60;99.90
36800;DHT22;22752;51.960;5.886;2024-01-10T01:44:05;-3.60;99.90
36800;DHT22;22752;51.960;5.886;2024-01-10T01:46:32;-3.60;99.90
36800;DHT22;22752;51.960;5.886;2024-01-10T01:48:58;-3.50;99.90
36800;DHT22;22752;51.960;5.886;2024-01-10T01:51:26;-3.60;99.90
36800;DHT22;22752;51.960;5.886;2024-01-10T01:53:54;-3.50;99.90
36800;DHT22;22752;51.960;5.886;2024-01-10T01:56:20;-3.60;99.90
36800;DHT22;22752;51.960;5.886;2024-01-10T01:58:46;-3.60;99.90
36800;DHT22;22752;51.960;5.886;2024-01-10T02:01:12;-3.60;99.90
36800;DHT22;22752;51.960;5.886;2024-01-10T02:03:38;-3.60;99.90
36800;DHT22;22752;51.960;5.886;2024-01-10T02:06:04;-3.60;99.90
36800;DHT22;22752;51.960;5.886;2024-01-10T02:08:34;-3.60;99.90
36800;DHT22;22752;51.960;5.886;2024-01-10T02:11:01;-3.60;99.90
36800;DHT22;22752;51.960;5.886;2024-01-10T02:13:28;-3.60;99.90
36800;DHT22;22752;51.960;5.886;2024-01-10T02:15:54;-3.60;99.90
36800;DHT22;22752;51.960;5.886;2024-01-10T02:18:20;-3.60;99.90
36800;DHT22;22752;51.960;5.886;2024-01-10T02:20:46;-3.60;99.90
36800;DHT22;22752;51.960;5.886;2024-01-10T02:23:12;-3.60;99.90
36800;DHT22;22752;51.960;5.886;2024-01-10T02:25:38;-3.60;99.90
36800;DHT22;22752;51.960;5.886;2024-01-10T02:28:04;-3.60;99.90
36800;DHT22;22752;51.960;5.886;2024-01-10T02:30:30;-3.60;99.90
36800;DHT22;22752;51.960;5.886;2024-01-10T02:32:56;-3.60;99.90
36800;DHT22;22752;51.960;5.886;2024-01-10T02:35:21;-3.60;99.90
36800;DHT22;22752;51.960;5.886;2024-01-10T02:37:47;-3.60;99.90
36800;DHT22;22752;51.960;5.886;2024-01-10T02:40:16;-3.60;99.90
36800;DHT22;22752;51.960;5.886;2024-01-10T02:42:42;-3.60;99.90
36800;DHT22;22752;51.960;5.886;2024-01-10T02:45:08;-3.60;99.90
36800;DHT22;22752;51.960;5.886;2024-01-10T02:47:34;-3.70;99.90
36800;DHT22;22752;51.960;5.886;2024-01-10T02:50:01;-3.70;99.90
36800;DHT22;22752;51.960;5.886;2024-01-10T02:52:27;-3.70;99.90
36800;DHT22;22752;51.960;5.886;2024-01-10T02:54:53;-3.80;99.90
36800;DHT22;22752;51.960;5.886;2024-01-10T02:57:18;-3.70;99.90
36800;DHT22;22752;51.960;5.886;2024-01-10T02:59:44;-3.80;99.90
36800;DHT22;22752;51.960;5.886;2024-01-10T03:02:10;-3.80;99.90
36800;DHT22;22752;51.960;5.886;2024-01-10T03:04:35;-3.90;99.90
36800;DHT22;22752;51.960;5.886;2024-01-10T03:07:01;-3.90;99.90
36800;DHT22;22752;51.960;5.886;2024-01-10T03:09:27;-3.90;99.90
36800;DHT22;22752;51.960;5.886;2024-01-10T03:11:52;-3.90;99.90
36800;DHT22;22752;51.960;5.886;2024-01-10T03:14:18;-3.90;99.90
36800;DHT22;22752;51.960;5.886;2024-01-10T03:16:44;-4.00;99.90
36800;DHT22;22752;51.960;5.886;2024-01-10T03:19:09;-4.00;99.90
36800;DHT22;22752;51.960;5.886;2024-01-10T03:21:35;-4.00;99.90
36800;DHT22;22752;51.960;5.886;2024-01-10T03:24:01;-4.00;99.90
36800;DHT22;22752;51.960;5.886;2024-01-10T03:26:27;-4.00;99.90
36800;DHT22;22752;51.960;5.886;2024-01-10T03:28:54;-4.00;99.90
36800;DHT22;22752;51.960;5.886;2024-01-10T03:31:20;-4.00;99.90
36800;DHT22;22752;51.960;5.886;2024-01-10T03:33:46;-4.00;99.90
36800;DHT22;22752;51.960;5.886;2024-01-10T03:36:14;-4.00;99.90
36800;DHT22;22752;51.960;5.886;2024-01-10T03:38:40;-4.00;99.90
36800;DHT22;22752;51.960;5.886;2024-01-10T03:41:06;-4.00;99.90
36800;DHT22;22752;51.960;5.886;2024-01-10T03:43:32;-4.10;99.90
36800;DHT22;22752;51.960;5.886;2024-01-10T03:45:58;-4.10;99.90
36800;DHT22;22752;51.960;5.886;2024-01-10T03:48:23;-4.10;99.90
36800;DHT22;22752;51.960;5.886;2024-01-10T03:50:49;-4.10;99.90
36800;DHT22;22752;51.960;5.886;2024-01-10T03:53:15;-4.20;99.90
36800;DHT22;22752;51.960;5.886;2024-01-10T03:55:40;-4.10;99.90
36800;DHT22;22752;51.960;5.886;2024-01-10T03:58:06;-4.20;99.90
36800;DHT22;22752;51.960;5.886;2024-01-10T04:00:32;-4.20;99.90
36800;DHT22;22752;51.960;5.886;2024-01-10T04:02:57;-4.20;99.90
36800;DHT22;22752;51.960;5.886;2024-01-10T04:05:23;-4.20;99.90
36800;DHT22;22752;51.960;5.886;2024-01-10T04:07:51;-4.20;99.90
36800;DHT22;22752;51.960;5.886;2024-01-10T04:10:17;-4.20;99.90
36800;DHT22;22752;51.960;5.886;2024-01-10T04:12:44;-4.20;99.90
36800;DHT22;22752;51.960;5.886;2024-01-10T04:15:10;-4.20;99.90
36800;DHT22;22752;51.960;5.886;2024-01-10T04:17:36;-4.20;99.90
36800;DHT22;22752;51.960;5.886;2024-01-10T04:20:02;-4.20;99.90
36800;DHT22;22752;51.960;5.886;2024-01-10T04:22:28;-4.20;99.90
36800;DHT22;22752;51.960;5.886;2024-01-10T04:24:56;-4.20;99.90
36800;DHT22;22752;51.960;5.886;2024-01-10T04:27:22;-4.20;99.90
36800;DHT22;22752;51.960;5.886;2024-01-10T04:29:48;-4.20;99.90
36800;DHT22;22752;51.960;5.886;2024-01-10T04:32:13;-4.30;99.90
36800;DHT22;22752;51.960;5.886;2024-01-10T04:34:39;-4.30;99.90
36800;DHT22;22752;51.960;5.886;2024-01-10T04:37:05;-4.30;99.90
36800;DHT22;22752;51.960;5.886;2024-01-10T04:39:33;-4.20;99.90
36800;DHT22;22752;51.960;5.886;2024-01-10T04:41:59;-4.30;99.90
36800;DHT22;22752;51.960;5.886;2024-01-10T04:44:24;-4.20;99.90
36800;DHT22;22752;51.960;5.886;2024-01-10T04:46:50;-4.20;99.90
36800;DHT22;22752;51.960;5.886;2024-01-10T04:49:16;-4.20;99.90
36800;DHT22;22752;51.960;5.886;2024-01-10T04:51:41;-4.20;99.90
36800;DHT22;22752;51.960;5.886;2024-01-10T04:54:08;-4.20;99.90
36800;DHT22;22752;51.960;5.886;2024-01-10T04:56:34;-4.20;99.90
36800;DHT22;22752;51.960;5.886;2024-01-10T04:59:02;-4.20;99.90
36800;DHT22;22752;51.960;5.886;2024-01-10T05:01:27;-4.20;99.90
36800;DHT22;22752;51.960;5.886;2024-01-10T05:03:53;-4.30;99.90
36800;DHT22;22752;51.960;5.886;2024-01-10T05:06:19;-4.30;99.90
36800;DHT22;22752;51.960;5.886;2024-01-10T05:08:45;-4.30;99.90
36800;DHT22;22752;51.960;5.886;2024-01-10T05:11:11;-4.30;99.90
36800;DHT22;22752;51.960;5.886;2024-01-10T05:13:36;-4.30;99.90
36800;DHT22;22752;51.960;5.886;2024-01-10T05:16:02;-4.30;99.90
36800;DHT22;22752;51.960;5.886;2024-01-10T05:18:28;-4.40;99.90
36800;DHT22;22752;51.960;5.886;2024-01-10T05:20:53;-4.40;99.90
36800;DHT22;22752;51.960;5.886;2024-01-10T05:23:19;-4.30;99.90
36800;DHT22;22752;51.960;5.886;2024-01-10T05:25:46;-4.40;99.90
36800;DHT22;22752;51.960;5.886;2024-01-10T05:28:11;-4.30;99.90
36800;DHT22;22752;51.960;5.886;2024-01-10T05:30:38;-4.40;99.90
36800;DHT22;22752;51.960;5.886;2024-01-10T05:33:03;-4.40;99.90
36800;DHT22;22752;51.960;5.886;2024-01-10T05:35:29;-4.40;99.90
36800;DHT22;22752;51.960;5.886;2024-01-10T05:37:55;-4.40;99.90
36800;DHT22;22752;51.960;5.886;2024-01-10T05:40:21;-4.50;99.90
36800;DHT22;22752;51.960;5.886;2024-01-10T05:42:46;-4.40;99.90
36800;DHT22;22752;51.960;5.886;2024-01-10T05:45:12;-4.50;99.90
36800;DHT22;22752;51.960;5.886;2024-01-10T05:47:37;-4.50;99.90
36800;DHT22;22752;51.960;5.886;2024-01-10T05:50:03;-4.50;99.90
36800;DHT22;22752;51.960;5.886;2024-01-10T05:52:32;-4.50;99.90
36800;DHT22;22752;51.960;5.886;2024-01-10T05:54:59;-4.50;99.90
36800;DHT22;22752;51.960;5.886;2024-01-10T05:57:27;-4.50;99.90
36800;DHT22;22752;51.960;5.886;2024-01-10T05:59:52;-4.50;99.90
36800;DHT22;22752;51.960;5.886;2024-01-10T06:02:23;-4.40;99.90
36800;DHT22;22752;51.960;5.886;2024-01-10T06:04:50;-4.40;99.90
36800;DHT22;22752;51.960;5.886;2024-01-10T06:07:15;-4.40;99.90
36800;DHT22;22752;51.960;5.886;2024-01-10T06:09:41;-4.30;99.90
36800;DHT22;22752;51.960;5.886;2024-01-10T06:12:09;-4.30;99.90
36800;DHT22;22752;51.960;5.886;2024-01-10T06:14:35;-4.30;99.90
36800;DHT22;22752;51.960;5.886;2024-01-10T06:17:01;-4.40;99.90
36800;DHT22;22752;51.960;5.886;2024-01-10T06:19:32;-4.40;99.90
36800;DHT22;22752;51.960;5.886;2024-01-10T06:21:58;-4.30;99.90
36800;DHT22;22752;51.960;5.886;2024-01-10T06:24:24;-4.30;99.90
36800;DHT22;22752;51.960;5.886;2024-01-10T06:26:49;-4.30;99.90
36800;DHT22;22752;51.960;5.886;2024-01-10T06:29:15;-4.30;99.90
36800;DHT22;22752;51.960;5.886;2024-01-10T06:31:41;-4.40;99.90
36800;DHT22;22752;51.960;5.886;2024-01-10T06:34:08;-4.40;99.90
36800;DHT22;22752;51.960;5.886;2024-01-10T06:36:34;-4.40;99.90
36800;DHT22;22752;51.960;5.886;2024-01-10T06:39:00;-4.40;99.90
36800;DHT22;22752;51.960;5.886;2024-01-10T06:41:25;-4.40;99.90
36800;DHT22;22752;51.960;5.886;2024-01-10T06:43:51;-4.40;99.90
36800;DHT22;22752;51.960;5.886;2024-01-10T06:46:18;-4.40;99.90
36800;DHT22;22752;51.960;5.886;2024-01-10T06:48:43;-4.30;99.90
36800;DHT22;22752;51.960;5.886;2024-01-10T06:51:10;-4.30;99.90
36800;DHT22;22752;51.960;5.886;2024-01-10T06:53:37;-4.30;99.90
36800;DHT22;22752;51.960;5.886;2024-01-10T06:56:03;-4.30;99.90
36800;DHT22;22752;51.960;5.886;2024-01-10T06:58:29;-4.40;99.90
36800;DHT22;22752;51.960;5.886;2024-01-10T07:00:55;-4.30;99.90
36800;DHT22;22752;51.960;5.886;2024-01-10T07:03:20;-4.30;99.90
36800;DHT22;22752;51.960;5.886;2024-01-10T07:05:46;-4.40;99.90
36800;DHT22;22752;51.960;5.886;2024-01-10T07:08:12;-4.40;99.90
36800;DHT22;22752;51.960;5.886;2024-01-10T07:10:37;-4.40;99.90
36800;DHT22;22752;51.960;5.886;2024-01-10T07:13:04;-4.40;99.90
36800;DHT22;22752;51.960;5.886;2024-01-10T07:15:30;-4.40;99.90
36800;DHT22;22752;51.960;5.886;2024-01-10T07:17:55;-4.40;99.90
36800;DHT22;22752;51.960;5.886;2024-01-10T07:20:21;-4.40;99.90
36800;DHT22;22752;51.960;5.886;2024-01-10T07:22:49;-4.40;99.90
36800;DHT22;22752;51.960;5.886;2024-01-10T07:25:16;-4.30;99.90
36800;DHT22;22752;51.960;5.886;2024-01-10T07:27:43;-4.30;99.90
36800;DHT22;22752;51.960;5.886;2024-01-10T07:30:09;-4.30;99.90
36800;DHT22;22752;51.960;5.886;2024-01-10T07:32:44;-4.30;99.90
36800;DHT22;22752;51.960;5.886;2024-01-10T07:35:11;-4.30;99.90
36800;DHT22;22752;51.960;5.886;2024-01-10T07:37:39;-4.30;99.90
36800;DHT22;22752;51.960;5.886;2024-01-10T07:40:06;-4.30;99.90
36800;DHT22;22752;51.960;5.886;2024-01-10T07:42:33;-4.30;99.90
36800;DHT22;22752;51.960;5.886;2024-01-10T07:45:00;-4.30;99.90
36800;DHT22;22752;51.960;5.886;2024-01-10T07:47:25;-4.30;99.90
36800;DHT22;22752;51.960;5.886;2024-01-10T07:49:51;-4.30;99.90
36800;DHT22;22752;51.960;5.886;2024-01-10T07:52:17;-4.40;99.90
36800;DHT22;22752;51.960;5.886;2024-01-10T07:54:42;-4.40;99.90
36800;DHT22;22752;51.960;5.886;2024-01-10T07:57:08;-4.40;99.90
36800;DHT22;22752;51.960;5.886;2024-01-10T07:59:34;-4.40;99.90
36800;DHT22;22752;51.960;5.886;2024-01-10T08:02:00;-4.40;99.90
36800;DHT22;22752;51.960;5.886;2024-01-10T08:04:29;-4.40;99.90
36800;DHT22;22752;51.960;5.886;2024-01-10T08:06:55;-4.40;99.90
36800;DHT22;22752;51.960;5.886;2024-01-10T08:09:21;-4.40;99.90
36800;DHT22;22752;51.960;5.886;2024-01-10T08:11:48;-4.30;99.90
36800;DHT22;22752;51.960;5.886;2024-01-10T08:14:14;-4.30;99.90
36800;DHT22;22752;51.960;5.886;2024-01-10T08:16:41;-4.20;99.90
36800;DHT22;22752;51.960;5.886;2024-01-10T08:19:07;-4.10;99.90
36800;DHT22;22752;51.960;5.886;2024-01-10T08:21:33;-4.10;99.90
36800;DHT22;22752;51.960;5.886;2024-01-10T08:23:59;-4.00;99.90
36800;DHT22;22752;51.960;5.886;2024-01-10T08:26:26;-4.00;99.90
36800;DHT22;22752;51.960;5.886;2024-01-10T08:28:52;-4.00;99.90
36800;DHT22;22752;51.960;5.886;2024-01-10T08:31:18;-4.00;99.90
36800;DHT22;22752;51.960;5.886;2024-01-10T08:33:43;-4.00;99.90
36800;DHT22;22752;51.960;5.886;2024-01-10T08:36:09;-3.90;99.90
36800;DHT22;22752;51.960;5.886;2024-01-10T08:38:38;-3.90;99.90
36800;DHT22;22752;51.960;5.886;2024-01-10T08:41:04;-3.80;99.90
36800;DHT22;22752;51.960;5.886;2024-01-10T08:43:29;-3.80;99.90
36800;DHT22;22752;51.960;5.886;2024-01-10T08:45:56;-3.80;99.90
36800;DHT22;22752;51.960;5.886;2024-01-10T08:48:23;-3.80;99.90
36800;DHT22;22752;51.960;5.886;2024-01-10T08:50:50;-3.80;99.90
36800;DHT22;22752;51.960;5.886;2024-01-10T08:53:15;-3.70;99.90
36800;DHT22;22752;51.960;5.886;2024-01-10T08:55:42;-3.70;99.90
36800;DHT22;22752;51.960;5.886;2024-01-10T08:58:07;-3.60;99.90
36800;DHT22;22752;51.960;5.886;2024-01-10T09:00:33;-3.70;99.90
36800;DHT22;22752;51.960;5.886;2024-01-10T09:03:00;-3.60;99.90
36800;DHT22;22752;51.960;5.886;2024-01-10T09:05:26;-3.60;99.90
36800;DHT22;22752;51.960;5.886;2024-01-10T09:07:52;-3.50;99.90
36800;DHT22;22752;51.960;5.886;2024-01-10T09:10:20;-3.50;99.90
36800;DHT22;22752;51.960;5.886;2024-01-10T09:12:49;-3.50;99.90
36800;DHT22;22752;51.960;5.886;2024-01-10T09:15:14;-3.40;99.90
36800;DHT22;22752;51.960;5.886;2024-01-10T09:17:42;-3.40;99.90
36800;DHT22;22752;51.960;5.886;2024-01-10T09:20:08;-3.40;99.90
36800;DHT22;22752;51.960;5.886;2024-01-10T09:22:34;-3.30;99.90
36800;DHT22;22752;51.960;5.886;2024-01-10T09:24:59;-3.30;99.90
36800;DHT22;22752;51.960;5.886;2024-01-10T09:27:30;-3.20;99.90
36800;DHT22;22752;51.960;5.886;2024-01-10T09:29:56;-3.20;99.90
36800;DHT22;22752;51.960;5.886;2024-01-10T09:32:21;-3.20;99.90
36800;DHT22;22752;51.960;5.886;2024-01-10T09:34:47;-3.10;99.90
36800;DHT22;22752;51.960;5.886;2024-01-10T09:37:13;-3.10;99.90
36800;DHT22;22752;51.960;5.886;2024-01-10T09:39:39;-3.00;99.90
36800;DHT22;22752;51.960;5.886;2024-01-10T09:42:05;-3.00;99.90
36800;DHT22;22752;51.960;5.886;2024-01-10T09:44:32;-2.90;99.90
36800;DHT22;22752;51.960;5.886;2024-01-10T09:46:58;-2.80;99.90
36800;DHT22;22752;51.960;5.886;2024-01-10T09:49:26;-2.80;99.90
36800;DHT22;22752;51.960;5.886;2024-01-10T09:51:58;-2.70;99.90
36800;DHT22;22752;51.960;5.886;2024-01-10T09:54:26;-2.70;99.90
36800;DHT22;22752;51.960;5.886;2024-01-10T09:56:52;-2.70;99.90
36800;DHT22;22752;51.960;5.886;2024-01-10T09:59:18;-2.60;99.90
36800;DHT22;22752;51.960;5.886;2024-01-10T10:01:44;-2.60;99.90
36800;DHT22;22752;51.960;5.886;2024-01-10T10:04:12;-2.50;99.90
36800;DHT22;22752;51.960;5.886;2024-01-10T10:06:38;-2.40;99.90
36800;DHT22;22752;51.960;5.886;2024-01-10T10:09:03;-2.40;99.90
36800;DHT22;22752;51.960;5.886;2024-01-10T10:11:30;-2.30;99.90
36800;DHT22;22752;51.960;5.886;2024-01-10T10:13:56;-2.30;99.90
36800;DHT22;22752;51.960;5.886;2024-01-10T10:16:23;-2.30;99.90
36800;DHT22;22752;51.960;5.886;2024-01-10T10:18:50;-2.20;99.90
36800;DHT22;22752;51.960;5.886;2024-01-10T10:21:18;-2.20;99.90
36800;DHT22;22752;51.960;5.886;2024-01-10T10:23:58;-2.20;99.90
36800;DHT22;22752;51.960;5.886;2024-01-10T10:26:26;-2.10;99.90
36800;DHT22;22752;51.960;5.886;2024-01-10T10:28:52;-2.10;99.90
36800;DHT22;22752;51.960;5.886;2024-01-10T10:31:19;-2.00;99.90
36800;DHT22;22752;51.960;5.886;2024-01-10T10:33:45;-2.00;99.90
36800;DHT22;22752;51.960;5.886;2024-01-10T10:36:15;-1.90;99.90
36800;DHT22;22752;51.960;5.886;2024-01-10T10:38:40;-1.90;99.90
36800;DHT22;22752;51.960;5.886;2024-01-10T10:41:06;-1.90;99.90
36800;DHT22;22752;51.960;5.886;2024-01-10T10:43:39;-1.80;99.90
36800;DHT22;22752;51.960;5.886;2024-01-10T10:46:05;-1.80;99.90
36800;DHT22;22752;51.960;5.886;2024-01-10T10:48:35;-1.80;99.90
36800;DHT22;22752;51.960;5.886;2024-01-10T10:51:11;-1.80;99.90
36800;DHT22;22752;51.960;5.886;2024-01-10T10:53:39;-1.70;99.80
36800;DHT22;22752;51.960;5.886;2024-01-10T10:56:07;-1.60;99.80
36800;DHT22;22752;51.960;5.886;2024-01-10T10:58:39;-1.60;99.70
36800;DHT22;22752;51.960;5.886;2024-01-10T11:01:06;-1.50;99.60
36800;DHT22;22752;51.960;5.886;2024-01-10T11:03:34;-1.50;99.50
36800;DHT22;22752;51.960;5.886;2024-01-10T11:06:01;-1.50;99.60
36800;DHT22;22752;51.960;5.886;2024-01-10T11:08:27;-1.40;99.80
36800;DHT22;22752;51.960;5.886;2024-01-10T11:10:55;-1.40;99.60
36800;DHT22;22752;51.960;5.886;2024-01-10T11:20:09;-1.30;99.00
36800;DHT22;22752;51.960;5.886;2024-01-10T11:25:26;-1.20;99.00
36800;DHT22;22752;51.960;5.886;2024-01-10T11:27:55;-1.20;98.80
36800;DHT22;22752;51.960;5.886;2024-01-10T11:30:51;-1.20;98.70
36800;DHT22;22752;51.960;5.886;2024-01-10T11:34:02;-1.00;98.60
36800;DHT22;22752;51.960;5.886;2024-01-10T11:36:17;-1.10;98.50
36800;DHT22;22752;51.960;5.886;2024-01-10T11:41:39;-0.90;98.20
36800;DHT22;22752;51.960;5.886;2024-01-10T11:46:39;-0.80;97.80
36800;DHT22;22752;51.960;5.886;2024-01-10T11:49:08;-0.70;98.00
36800;DHT22;22752;51.960;5.886;2024-01-10T11:51:37;-0.70;97.20
36800;DHT22;22752;51.960;5.886;2024-01-10T11:54:03;-0.60;97.10
36800;DHT22;22752;51.960;5.886;2024-01-10T11:59:07;-0.50;96.90
36800;DHT22;22752;51.960;5.886;2024-01-10T12:01:39;-0.40;96.60
36800;DHT22;22752;51.960;5.886;2024-01-10T12:04:05;-0.40;96.60
36800;DHT22;22752;51.960;5.886;2024-01-10T12:06:35;-0.40;96.10
36800;DHT22;22752;51.960;5.886;2024-01-10T12:09:04;-0.40;96.50
36800;DHT22;22752;51.960;5.886;2024-01-10T12:11:41;-0.30;96.20
36800;DHT22;22752;51.960;5.886;2024-01-10T12:14:10;-0.30;96.00
36800;DHT22;22752;51.960;5.886;2024-01-10T12:16:35;-0.30;96.00
36800;DHT22;22752;51.960;5.886;2024-01-10T12:19:02;-0.30;96.10
36800;DHT22;22752;51.960;5.886;2024-01-10T12:21:27;-0.20;96.00
36800;DHT22;22752;51.960;5.886;2024-01-10T12:23:53;-0.20;96.20
36800;DHT22;22752;51.960;5.886;2024-01-10T12:26:19;-0.20;95.90
36800;DHT22;22752;51.960;5.886;2024-01-10T12:28:58;-0.20;95.90
36800;DHT22;22752;51.960;5.886;2024-01-10T12:31:27;-0.10;96.20
36800;DHT22;22752;51.960;5.886;2024-01-10T12:33:55;-0.10;96.20
36800;DHT22;22752;51.960;5.886;2024-01-10T12:36:21;-0.10;95.50
36800;DHT22;22752;51.960;5.886;2024-01-10T12:38:47;-0.10;95.60
36800;DHT22;22752;51.960;5.886;2024-01-10T12:41:15;0.00;95.60
36800;DHT22;22752;51.960;5.886;2024-01-10T12:43:41;0.00;95.70
36800;DHT22;22752;51.960;5.886;2024-01-10T12:46:11;0.10;95.60
36800;DHT22;22752;51.960;5.886;2024-01-10T12:48:38;0.10;95.60
36800;DHT22;22752;51.960;5.886;2024-01-10T12:51:07;0.10;95.70
36800;DHT22;22752;51.960;5.886;2024-01-10T12:53:51;0.10;95.50
36800;DHT22;22752;51.960;5.886;2024-01-10T12:56:18;0.10;95.30
36800;DHT22;22752;51.960;5.886;2024-01-10T12:58:43;0.10;95.40
36800;DHT22;22752;51.960;5.886;2024-01-10T13:01:09;0.20;95.50
36800;DHT22;22752;51.960;5.886;2024-01-10T13:03:35;0.20;95.50
36800;DHT22;22752;51.960;5.886;2024-01-10T13:06:01;0.20;95.10
36800;DHT22;22752;51.960;5.886;2024-01-10T13:08:26;0.30;94.90
36800;DHT22;22752;51.960;5.886;2024-01-10T13:10:53;0.20;94.90
36800;DHT22;22752;51.960;5.886;2024-01-10T13:13:19;0.30;95.10
36800;DHT22;22752;51.960;5.886;2024-01-10T13:15:47;0.30;95.20
36800;DHT22;22752;51.960;5.886;2024-01-10T13:18:13;0.30;95.10
36800;DHT22;22752;51.960;5.886;2024-01-10T13:20:43;0.30;95.10
36800;DHT22;22752;51.960;5.886;2024-01-10T13:23:09;0.40;95.60
36800;DHT22;22752;51.960;5.886;2024-01-10T13:25:35;0.40;95.30
36800;DHT22;22752;51.960;5.886;2024-01-10T13:28:03;0.40;95.40
36800;DHT22;22752;51.960;5.886;2024-01-10T13:30:29;0.40;95.40
36800;DHT22;22752;51.960;5.886;2024-01-10T13:32:55;0.40;95.10
36800;DHT22;22752;51.960;5.886;2024-01-10T13:35:20;0.40;95.50
36800;DHT22;22752;51.960;5.886;2024-01-10T13:37:47;0.40;95.40
36800;DHT22;22752;51.960;5.886;2024-01-10T13:40:13;0.40;95.50
36800;DHT22;22752;51.960;5.886;2024-01-10T13:42:39;0.40;95.30
36800;DHT22;22752;51.960;5.886;2024-01-10T13:45:06;0.40;95.10
36800;DHT22;22752;51.960;5.886;2024-01-10T13:47:33;0.40;95.10
36800;DHT22;22752;51.960;5.886;2024-01-10T13:49:59;0.40;95.20
36800;DHT22;22752;51.960;5.886;2024-01-10T13:52:25;0.50;95.00
36800;DHT22;22752;51.960;5.886;2024-01-10T13:54:51;0.50;95.00
36800;DHT22;22752;51.960;5.886;2024-01-10T13:57:18;0.50;95.00
36800;DHT22;22752;51.960;5.886;2024-01-10T13:59:43;0.50;95.00
36800;DHT22;22752;51.960;5.886;2024-01-10T14:02:10;0.50;95.10
36800;DHT22;22752;51.960;5.886;2024-01-10T14:04:36;0.50;95.20
36800;DHT22;22752;51.960;5.886;2024-01-10T14:07:02;0.50;95.20
36800;DHT22;22752;51.960;5.886;2024-01-10T14:09:30;0.50;95.30
36800;DHT22;22752;51.960;5.886;2024-01-10T14:11:55;0.50;95.40
36800;DHT22;22752;51.960;5.886;2024-01-10T14:14:21;0.50;95.20
36800;DHT22;22752;51.960;5.886;2024-01-10T14:16:47;0.50;95.30
36800;DHT22;22752;51.960;5.886;2024-01-10T14:19:13;0.50;95.50
36800;DHT22;22752;51.960;5.886;2024-01-10T14:21:39;0.50;95.30
36800;DHT22;22752;51.960;5.886;2024-01-10T14:24:04;0.50;95.50
36800;DHT22;22752;51.960;5.886;2024-01-10T14:26:30;0.50;95.70
36800;DHT22;22752;51.960;5.886;2024-01-10T14:28:56;0.50;95.40
36800;DHT22;22752;51.960;5.886;2024-01-10T14:31:22;0.50;95.40
36800;DHT22;22752;51.960;5.886;2024-01-10T14:33:48;0.40;95.30
36800;DHT22;22752;51.960;5.886;2024-01-10T14:36:14;0.40;95.40
36800;DHT22;22752;51.960;5.886;2024-01-10T14:38:41;0.40;95.20
36800;DHT22;22752;51.960;5.886;2024-01-10T14:41:07;0.40;95.40
36800;DHT22;22752;51.960;5.886;2024-01-10T14:43:33;0.40;95.70
36800;DHT22;22752;51.960;5.886;2024-01-10T14:45:59;0.40;95.80
36800;DHT22;22752;51.960;5.886;2024-01-10T14:48:24;0.30;95.70
36800;DHT22;22752;51.960;5.886;2024-01-10T14:50:50;0.30;95.80
36800;DHT22;22752;51.960;5.886;2024-01-10T14:53:16;0.30;95.70
36800;DHT22;22752;51.960;5.886;2024-01-10T14:55:42;0.30;95.50
36800;DHT22;22752;51.960;5.886;2024-01-10T14:58:07;0.30;95.50
36800;DHT22;22752;51.960;5.886;2024-01-10T15:00:33;0.40;95.50
36800;DHT22;22752;51.960;5.886;2024-01-10T15:02:59;0.30;95.40
36800;DHT22;22752;51.960;5.886;2024-01-10T15:05:24;0.30;95.50
36800;DHT22;22752;51.960;5.886;2024-01-10T15:07:51;0.30;95.70
36800;DHT22;22752;51.960;5.886;2024-01-10T15:10:17;0.20;95.70
36800;DHT22;22752;51.960;5.886;2024-01-10T15:12:43;0.30;95.80
36800;DHT22;22752;51.960;5.886;2024-01-10T15:15:12;0.20;96.10
36800;DHT22;22752;51.960;5.886;2024-01-10T15:17:38;0.20;96.10
36800;DHT22;22752;51.960;5.886;2024-01-10T15:20:05;0.10;96.10
36800;DHT22;22752;51.960;5.886;2024-01-10T15:22:32;0.10;96.20
36800;DHT22;22752;51.960;5.886;2024-01-10T15:24:58;0.10;96.30
36800;DHT22;22752;51.960;5.886;2024-01-10T15:27:25;0.10;96.30
36800;DHT22;22752;51.960;5.886;2024-01-10T15:29:53;0.00;96.40
36800;DHT22;22752;51.960;5.886;2024-01-10T15:32:20;0.00;96.30
36800;DHT22;22752;51.960;5.886;2024-01-10T15:34:45;0.00;96.30
36800;DHT22;22752;51.960;5.886;2024-01-10T15:37:11;0.00;96.40
36800;DHT22;22752;51.960;5.886;2024-01-10T15:39:37;0.00;96.40
36800;DHT22;22752;51.960;5.886;2024-01-10T15:42:04;-0.10;96.40
36800;DHT22;22752;51.960;5.886;2024-01-10T15:44:30;-0.20;96.60
36800;DHT22;22752;51.960;5.886;2024-01-10T15:46:56;-0.20;96.60
36800;DHT22;22752;51.960;5.886;2024-01-10T15:49:23;-0.30;96.80